Time,TemperatureF,DewpointF,PressureIn,WindDirection,WindDirectionDegrees,WindSpeedMPH,WindSpeedGustMPH,Humidity,HourlyPrecipIn,Conditions,Clouds,dailyrainin,SoftwareType,DateUTC
2013-04-15 00:09:00,63.6,62.0,29.82,SE,131,2.0,-999.0,94,-99.99,,,3.02,weatherlink.com 1.10,2013-04-15 05:09:00,
2013-04-15 00:24:00,63.5,62.0,29.82,ESE,119,0.0,-999.0,94,-99.99,,,0.00,weatherlink.com 1.10,2013-04-15 05:24:00,
2013-04-15 00:39:00,63.3,62.0,29.82,ESE,119,0.0,-999.0,94,-99.99,,,0.00,weatherlink.com 1.10,2013-04-15 05:39:00,
2013-04-15 00:54:00,63.2,62.0,29.82,ESE,119,0.0,-999.0,95,-99.99,,,0.00,weatherlink.com 1.10,2013-04-15 05:54:00,
2013-04-15 01:08:00,63.3,62.0,29.82,ESE,119,0.0,-999.0,95,-99.99,,,0.00,weatherlink.com 1.10,2013-04-15 06:08:00,
2013-04-15 01:24:00,63.9,63.0,29.82,ESE,119,0.0,-999.0,95,-99.99,,,0.00,weatherlink.com 1.10,2013-04-15 06:24:00,
2013-04-15 01:39:00,64.1,63.0,29.82,ESE,117,1.0,-999.0,95,-99.99,,,0.00,weatherlink.com 1.10,2013-04-15 06:39:00,
2013-04-15 01:54:00,64.2,63.0,29.82,ESE,119,0.0,-999.0,95,-99.99,,,0.00,weatherlink.com 1.10,2013-04-15 06:54:00,
2013-04-15 02:54:00,64.7,64.0,29.82,ESE,119,0.0,-999.0,96,-99.99,,,0.00,weatherlink.com 1.10,2013-04-15 07:54:00,
2013-04-15 03:09:00,65.0,64.0,29.82,ESE,119,0.0,-999.0,96,-99.99,,,0.00,weatherlink.com 1.10,2013-04-15 08:09:00,
2013-04-15 03:24:00,65.1,64.0,29.83,ESE,116,0.0,-999.0,96,-99.99,,,0.00,weatherlink.com 1.10,2013-04-15 08:24:00,
2013-04-15 03:54:00,65.2,64.0,29.83,SE,138,0.0,-999.0,96,-99.99,,,0.00,weatherlink.com 1.10,2013-04-15 08:54:00,
2013-04-15 04:09:00,65.2,64.0,29.84,SSE,152,0.0,-999.0,96,-99.99,,,0.00,weatherlink.com 1.10,2013-04-15 09:09:00,
2013-04-15 04:25:00,65.2,64.0,29.84,SSE,149,0.0,-999.0,96,-99.99,,,0.00,weatherlink.com 1.10,2013-04-15 09:25:00,
2013-04-15 04:40:00,65.2,64.0,29.84,SSE,163,0.0,-999.0,96,-99.99,,,0.00,weatherlink.com 1.10,2013-04-15 09:40:00,
2013-04-15 04:55:00,65.1,64.0,29.84,South,178,0.0,-999.0,96,-99.99,,,0.00,weatherlink.com 1.10,2013-04-15 09:55:00,
2013-04-15 05:10:00,65.1,64.0,29.84,ESE,116,1.0,-999.0,96,-99.99,,,0.00,weatherlink.com 1.10,2013-04-15 10:10:00,
2013-04-15 05:25:00,65.0,64.0,29.84,ESE,116,0.0,-999.0,96,-99.99,,,0.00,weatherlink.com 1.10,2013-04-15 10:25:00,
2013-04-15 05:40:00,64.9,64.0,29.85,ESE,119,0.0,-999.0,96,-99.99,,,0.00,weatherlink.com 1.10,2013-04-15 10:40:00,
2013-04-15 05:55:00,64.9,64.0,29.86,ESE,119,0.0,-999.0,96,-99.99,,,0.00,weatherlink.com 1.10,2013-04-15 10:55:00,
2013-04-15 06:10:00,64.9,64.0,29.86,ESE,119,0.0,-999.0,95,-99.99,,,0.00,weatherlink.com 1.10,2013-04-15 11:10:00,
2013-04-15 06:25:00,64.9,64.0,29.86,ESE,119,0.0,-999.0,96,-99.99,,,0.00,weatherlink.com 1.10,2013-04-15 11:25:00,
2013-04-15 06:40:00,64.9,64.0,29.87,ESE,119,0.0,-999.0,95,-99.99,,,0.00,weatherlink.com 1.10,2013-04-15 11:40:00,
2013-04-15 06:55:00,64.9,64.0,29.87,ESE,119,0.0,-999.0,95,-99.99,,,0.00,weatherlink.com 1.10,2013-04-15 11:55:00,
2013-04-15 07:10:00,65.0,64.0,29.87,ESE,119,0.0,-999.0,95,-99.99,,,0.00,weatherlink.com 1.10,2013-04-15 12:10:00,
2013-04-15 07:25:00,65.2,64.0,29.88,SSE,157,0.0,-999.0,96,-99.99,,,0.00,weatherlink.com 1.10,2013-04-15 12:25:00,
2013-04-15 07:40:00,65.4,64.0,29.89,SSE,157,0.0,-999.0,95,-99.99,,,0.00,weatherlink.com 1.10,2013-04-15 12:40:00,
2013-04-15 07:55:00,65.8,65.0,29.90,SSE,157,0.0,-999.0,96,-99.99,,,0.00,weatherlink.com 1.10,2013-04-15 12:55:00,
2013-04-15 08:10:00,66.1,65.0,29.90,ESE,113,0.0,-999.0,96,-99.99,,,0.00,weatherlink.com 1.10,2013-04-15 13:10:00,
2013-04-15 08:40:00,67.1,65.0,29.91,ESE,111,4.0,-999.0,94,-99.99,,,0.00,weatherlink.com 1.10,2013-04-15 13:40:00,
2013-04-15 08:55:00,67.6,66.0,29.91,ESE,107,4.0,-999.0,93,-99.99,,,0.00,weatherlink.com 1.10,2013-04-15 13:55:00,
2013-04-15 09:10:00,68.1,66.0,29.91,East,90,5.0,-999.0,92,-99.99,,,0.00,weatherlink.com 1.10,2013-04-15 14:10:00,
2013-04-15 09:25:00,68.7,66.0,29.92,East,93,5.0,-999.0,91,-99.99,,,0.00,weatherlink.com 1.10,2013-04-15 14:25:00,
2013-04-15 09:40:00,69.2,66.0,29.92,East,101,1.0,-999.0,90,-99.99,,,0.00,weatherlink.com 1.10,2013-04-15 14:40:00,
2013-04-15 09:55:00,70.9,67.0,29.92,ESE,115,5.0,-999.0,87,-99.99,,,0.00,weatherlink.com 1.10,2013-04-15 14:55:00,
2013-04-15 10:10:00,71.8,68.0,29.92,East,87,2.0,-999.0,87,-99.99,,,0.00,weatherlink.com 1.10,2013-04-15 15:10:00,
2013-04-15 10:25:00,72.8,68.0,29.92,SE,135,7.0,-999.0,84,-99.99,,,0.00,weatherlink.com 1.10,2013-04-15 15:25:00,
2013-04-15 10:40:00,74.8,69.0,29.93,SE,126,4.0,-999.0,82,-99.99,,,0.00,weatherlink.com 1.10,2013-04-15 15:40:00,
2013-04-15 10:55:00,75.7,69.0,29.93,East,90,6.0,-999.0,79,-99.99,,,0.00,weatherlink.com 1.10,2013-04-15 15:55:00,
2013-04-15 11:25:00,76.0,69.0,29.93,ENE,78,3.0,-999.0,78,-99.99,,,0.00,weatherlink.com 1.10,2013-04-15 16:25:00,
2013-04-15 11:40:00,76.3,69.0,29.93,ESE,123,7.0,-999.0,78,-99.99,,,0.00,weatherlink.com 1.10,2013-04-15 16:40:00,
2013-04-15 11:55:00,77.0,69.0,29.93,East,92,5.0,-999.0,77,-99.99,,,0.00,weatherlink.com 1.10,2013-04-15 16:55:00,
2013-04-15 12:11:00,78.0,69.0,29.93,SE,133,6.0,-999.0,74,-99.99,,,0.00,weatherlink.com 1.10,2013-04-15 17:11:00,
2013-04-15 12:26:00,78.7,69.0,29.93,SE,125,5.0,-999.0,73,-99.99,,,0.00,weatherlink.com 1.10,2013-04-15 17:26:00,
2013-04-15 12:41:00,78.7,70.0,29.92,SSE,151,5.0,-999.0,75,-99.99,,,0.00,weatherlink.com 1.10,2013-04-15 17:41:00,
2013-04-15 12:56:00,79.9,71.0,29.93,SSE,157,1.0,-999.0,74,-99.99,,,0.00,weatherlink.com 1.10,2013-04-15 17:56:00,
2013-04-15 13:41:00,81.6,72.0,29.91,SE,124,5.0,-999.0,72,-99.99,,,0.00,weatherlink.com 1.10,2013-04-15 18:41:00,
2013-04-15 13:56:00,81.9,71.0,29.91,ENE,72,4.0,-999.0,69,-99.99,,,0.00,weatherlink.com 1.10,2013-04-15 18:56:00,
2013-04-15 14:26:00,81.2,73.0,29.90,SSE,147,4.0,-999.0,75,-99.99,,,0.00,weatherlink.com 1.10,2013-04-15 19:26:00,
2013-04-15 15:11:00,81.4,73.0,29.89,SE,132,0.0,-999.0,76,-99.99,,,0.00,weatherlink.com 1.10,2013-04-15 20:11:00,
2013-04-15 15:26:00,82.0,74.0,29.89,SE,144,4.0,-999.0,76,-99.99,,,0.00,weatherlink.com 1.10,2013-04-15 20:26:00,
2013-04-15 15:41:00,82.4,74.0,29.89,SE,130,5.0,-999.0,76,-99.99,,,0.00,weatherlink.com 1.10,2013-04-15 20:41:00,
2013-04-15 15:56:00,82.2,74.0,29.88,SSE,157,0.0,-999.0,76,-99.99,,,0.00,weatherlink.com 1.10,2013-04-15 20:56:00,
2013-04-15 16:11:00,82.0,74.0,29.88,South,173,2.0,-999.0,77,-99.99,,,0.00,weatherlink.com 1.10,2013-04-15 21:11:00,
2013-04-15 16:26:00,80.8,73.0,29.89,ESE,116,2.0,-999.0,78,-99.99,,,0.00,weatherlink.com 1.10,2013-04-15 21:26:00,
2013-04-15 16:41:00,79.6,73.0,29.88,SE,130,5.0,-999.0,80,-99.99,,,0.00,weatherlink.com 1.10,2013-04-15 21:41:00,
2013-04-15 17:11:00,79.3,73.0,29.88,SE,135,4.0,-999.0,82,-99.99,,,0.00,weatherlink.com 1.10,2013-04-15 22:11:00,
2013-04-15 17:26:00,79.0,74.0,29.88,SE,135,2.0,-999.0,83,-99.99,,,0.00,weatherlink.com 1.10,2013-04-15 22:26:00,
2013-04-15 17:41:00,78.3,73.0,29.88,SE,136,8.0,-999.0,84,-99.99,,,0.00,weatherlink.com 1.10,2013-04-15 22:41:00,
2013-04-15 17:56:00,77.7,73.0,29.88,SE,135,5.0,-999.0,85,-99.99,,,0.00,weatherlink.com 1.10,2013-04-15 22:56:00,
2013-04-15 18:11:00,77.3,73.0,29.88,SE,127,2.0,-999.0,86,-99.99,,,0.00,weatherlink.com 1.10,2013-04-15 23:11:00,
2013-04-15 18:26:00,77.1,73.0,29.88,East,94,6.0,-999.0,87,-99.99,,,0.00,weatherlink.com 1.10,2013-04-15 23:26:00,
2013-04-15 18:41:00,76.8,73.0,29.88,SE,130,2.0,-999.0,88,-99.99,,,0.00,weatherlink.com 1.10,2013-04-15 23:41:00,
2013-04-15 19:11:00,76.6,73.0,29.88,ESE,121,2.0,-999.0,89,-99.99,,,0.00,weatherlink.com 1.10,2013-04-16 00:11:00,
2013-04-15 19:26:00,76.5,73.0,29.88,East,98,2.0,-999.0,89,-99.99,,,0.00,weatherlink.com 1.10,2013-04-16 00:26:00,
2013-04-15 19:41:00,76.2,73.0,29.89,ESE,120,1.0,-999.0,89,-99.99,,,0.00,weatherlink.com 1.10,2013-04-16 00:41:00,
2013-04-15 19:56:00,76.0,73.0,29.89,ENE,63,1.0,-999.0,90,-99.99,,,0.00,weatherlink.com 1.10,2013-04-16 00:56:00,
2013-04-15 20:11:00,75.7,73.0,29.90,ESE,111,4.0,-999.0,91,-99.99,,,0.00,weatherlink.com 1.10,2013-04-16 01:11:00,
2013-04-15 20:41:00,75.7,73.0,29.91,East,101,4.0,-999.0,91,-99.99,,,0.00,weatherlink.com 1.10,2013-04-16 01:41:00,
2013-04-15 20:56:00,75.7,73.0,29.92,ESE,104,2.0,-999.0,92,-99.99,,,0.00,weatherlink.com 1.10,2013-04-16 01:56:00,
2013-04-15 21:11:00,75.8,73.0,29.93,SE,124,4.0,-999.0,92,-99.99,,,0.00,weatherlink.com 1.10,2013-04-16 02:11:00,
2013-04-15 21:26:00,75.7,73.0,29.93,SE,127,6.0,-999.0,92,-99.99,,,0.00,weatherlink.com 1.10,2013-04-16 02:26:00,
2013-04-15 21:41:00,75.7,73.0,29.94,ESE,107,4.0,-999.0,92,-99.99,,,0.00,weatherlink.com 1.10,2013-04-16 02:41:00,
2013-04-15 21:56:00,75.6,74.0,29.95,SE,136,1.0,-999.0,93,-99.99,,,0.00,weatherlink.com 1.10,2013-04-16 02:56:00,
2013-04-15 22:11:00,75.5,73.0,29.95,ESE,123,0.0,-999.0,93,-99.99,,,0.00,weatherlink.com 1.10,2013-04-16 03:11:00,
2013-04-15 22:26:00,75.2,73.0,29.95,SE,134,0.0,-999.0,94,-99.99,,,0.01,weatherlink.com 1.10,2013-04-16 03:26:00,
2013-04-15 22:41:00,75.1,73.0,29.95,SE,126,1.0,-999.0,94,-99.99,,,0.02,weatherlink.com 1.10,2013-04-16 03:41:00,
2013-04-15 22:56:00,74.9,73.0,29.96,East,98,1.0,-999.0,94,-99.99,,,0.03,weatherlink.com 1.10,2013-04-16 03:56:00,
2013-04-15 23:11:00,74.7,73.0,29.96,SE,146,0.0,-999.0,95,-99.99,,,0.03,weatherlink.com 1.10,2013-04-16 04:11:00,
2013-04-15 23:26:00,74.6,73.0,29.95,ESE,123,0.0,-999.0,95,-99.99,,,0.03,weatherlink.com 1.10,2013-04-16 04:26:00,
2013-04-15 23:41:00,74.5,73.0,29.95,ESE,116,2.0,-999.0,95,-99.99,,,0.03,weatherlink.com 1.10,2013-04-16 04:41:00,
2013-04-15 23:56:00,74.4,73.0,29.95,ESE,112,1.0,-999.0,95,-99.99,,,0.03,weatherlink.com 1.10,2013-04-16 04:56:00,